createdAt,value
2023-04-10T00:00:57.697Z,4.11
2023-04-10T00:03:27.063Z,4.52
2023-04-10T00:05:55.546Z,4.57
2023-04-10T00:08:24.230Z,4.62
2023-04-10T00:10:53.306Z,4.59
2023-04-10T00:13:21.726Z,4.50
2023-04-10T00:15:50.170Z,4.13
2023-04-10T00:18:19.458Z,4.27
2023-04-10T00:20:47.313Z,4.24
2023-04-10T00:23:15.433Z,4.30
2023-04-10T00:25:43.287Z,4.16
2023-04-10T00:28:11.152Z,4.30
2023-04-10T00:30:39.588Z,4.22
2023-04-10T00:33:07.465Z,4.21
2023-04-10T00:35:36.717Z,3.40
2023-04-10T00:38:04.648Z,4.36
2023-04-10T00:40:32.526Z,4.36
2023-04-10T00:43:00.614Z,4.38
2023-04-10T00:45:28.866Z,3.86
2023-04-10T00:47:57.035Z,4.05
2023-04-10T00:50:25.545Z,4.21
2023-04-10T00:52:54.739Z,4.25
2023-04-10T00:55:23.433Z,4.24
2023-04-10T00:57:51.325Z,4.21
2023-04-10T01:00:19.970Z,4.07
2023-04-10T01:02:49.242Z,4.07
2023-04-10T01:05:18.496Z,3.80
2023-04-10T01:08:00.739Z,4.03
2023-04-10T01:10:39.498Z,4.04
2023-04-10T01:13:15.526Z,3.83
2023-04-10T01:15:48.848Z,3.90
2023-04-10T01:18:23.934Z,3.89
2023-04-10T01:20:51.786Z,3.77
2023-04-10T01:24:04.604Z,3.87
2023-04-10T01:26:44.315Z,3.76
2023-04-10T01:29:19.633Z,3.62
2023-04-10T01:31:53.487Z,3.69
2023-04-10T01:34:24.885Z,3.78
2023-04-10T01:36:56.360Z,3.75
2023-04-10T01:39:28.144Z,3.52
2023-04-10T01:41:59.868Z,3.68
2023-04-10T01:44:42.843Z,3.67
2023-04-10T01:47:11.241Z,3.69
2023-04-10T01:49:44.381Z,3.60
2023-04-10T01:52:13.006Z,3.43
2023-04-10T01:54:43.318Z,3.53
2023-04-10T01:57:15.245Z,3.28
2023-04-10T01:59:56.104Z,3.30
2023-04-10T02:02:24.293Z,3.53
2023-04-10T02:04:52.375Z,3.41
2023-04-10T02:07:26.649Z,3.58
2023-04-10T02:10:01.053Z,3.47
2023-04-10T02:12:32.034Z,3.34
2023-04-10T02:15:03.917Z,3.16
2023-04-10T02:17:34.204Z,3.31
2023-04-10T02:20:06.551Z,2.33
2023-04-10T02:22:35.435Z,2.95
2023-04-10T02:25:05.517Z,3.07
2023-04-10T02:27:35.576Z,3.12
2023-04-10T02:30:05.868Z,2.74
2023-04-10T02:32:36.942Z,3.18
2023-04-10T02:35:09.227Z,3.15
2023-04-10T02:37:38.638Z,3.01
2023-04-10T02:40:07.925Z,3.17
2023-04-10T02:42:47.479Z,2.99
2023-04-10T02:45:16.861Z,3.12
2023-04-10T02:47:45.515Z,2.84
2023-04-10T02:50:13.556Z,2.85
2023-04-10T02:52:45.009Z,2.66
2023-04-10T02:55:13.073Z,2.80
2023-04-10T02:57:42.543Z,2.89
2023-04-10T03:00:11.755Z,3.00
2023-04-10T03:03:10.372Z,2.97
2023-04-10T03:05:49.539Z,3.00
2023-04-10T03:08:20.187Z,2.51
2023-04-10T03:10:49.452Z,3.08
2023-04-10T03:13:17.516Z,3.03
2023-04-10T03:15:45.555Z,2.46
2023-04-10T03:18:15.081Z,3.04
2023-04-10T03:20:45.403Z,2.98
2023-04-10T03:23:13.456Z,2.94
2023-04-10T03:25:42.263Z,2.92
2023-04-10T03:28:10.863Z,3.06
2023-04-10T03:30:38.939Z,2.88
2023-04-10T03:33:06.797Z,2.96
2023-04-10T03:35:35.982Z,2.89
2023-04-10T03:38:03.854Z,2.87
2023-04-10T03:40:31.628Z,2.72
2023-04-10T03:42:59.596Z,2.73
2023-04-10T03:45:29.407Z,2.67
2023-04-10T03:47:57.306Z,2.67
2023-04-10T03:50:26.096Z,2.60
2023-04-10T03:53:01.739Z,2.44
2023-04-10T03:55:29.679Z,2.74
2023-04-10T03:57:57.765Z,2.56
2023-04-10T04:00:27.275Z,2.69
2023-04-10T04:03:05.022Z,2.60
2023-04-10T04:05:57.611Z,2.61
2023-04-10T04:08:26.878Z,2.61
2023-04-10T04:11:30.066Z,2.54
2023-04-10T04:14:04.294Z,2.42
2023-04-10T04:16:45.071Z,2.62
2023-04-10T04:19:27.807Z,2.48
2023-04-10T04:22:31.029Z,2.63
2023-04-10T04:25:22.713Z,2.56
2023-04-10T04:28:21.064Z,2.62
2023-04-10T04:31:18.095Z,2.54
2023-04-10T04:34:04.547Z,2.45
2023-04-10T04:37:10.663Z,2.33
2023-04-10T04:40:12.344Z,2.53
2023-04-10T04:42:59.554Z,2.57
2023-04-10T04:45:45.912Z,2.58
2023-04-10T04:48:30.691Z,2.53
2023-04-10T04:51:18.616Z,2.51
2023-04-10T04:53:50.992Z,2.34
2023-04-10T04:56:46.949Z,2.52
2023-04-10T04:59:47.234Z,2.63
2023-04-10T05:02:38.066Z,2.17
2023-04-10T05:05:26.135Z,2.57
2023-04-10T05:08:10.865Z,2.74
2023-04-10T05:10:47.827Z,2.65
2023-04-10T05:13:30.868Z,2.70
2023-04-10T05:16:15.926Z,2.92
2023-04-10T05:19:02.145Z,3.10
2023-04-10T05:21:53.267Z,3.29
2023-04-10T05:24:33.618Z,2.93
2023-04-10T05:27:16.163Z,3.48
2023-04-10T05:30:19.286Z,3.14
2023-04-10T05:33:07.177Z,3.69
2023-04-10T05:36:07.915Z,3.83
2023-04-10T05:38:51.109Z,3.89
2023-04-10T05:41:48.070Z,3.98
2023-04-10T05:44:36.127Z,4.08
2023-04-10T05:47:04.070Z,4.17
2023-04-10T05:49:59.132Z,4.36
2023-04-10T05:52:36.576Z,4.49
2023-04-10T05:55:24.384Z,4.29
2023-04-10T05:58:15.382Z,5.06
2023-04-10T06:01:03.155Z,5.22
2023-04-10T06:03:45.441Z,5.21
2023-04-10T06:06:15.080Z,5.28
2023-04-10T06:08:42.946Z,5.10
2023-04-10T06:11:10.857Z,5.17
2023-04-10T06:13:39.140Z,5.10
2023-04-10T06:16:08.090Z,5.15
2023-04-10T06:18:36.152Z,5.28
2023-04-10T06:21:04.930Z,5.65
2023-04-10T06:23:34.159Z,6.12
2023-04-10T06:26:03.420Z,5.76
2023-04-10T06:28:31.489Z,6.28
2023-04-10T06:31:04.275Z,6.50
2023-04-10T06:33:36.621Z,6.75
2023-04-10T06:36:06.864Z,6.95
2023-04-10T06:38:41.260Z,7.06
2023-04-10T06:41:09.227Z,6.80
2023-04-10T06:43:38.084Z,6.60
2023-04-10T06:46:06.466Z,7.08
2023-04-10T06:48:34.837Z,7.06
2023-04-10T06:51:02.819Z,7.17
2023-04-10T06:53:31.198Z,7.15
2023-04-10T06:56:03.152Z,7.58
2023-04-10T06:58:32.021Z,7.86
2023-04-10T07:01:04.456Z,8.01
2023-04-10T07:03:32.802Z,8.16
2023-04-10T07:06:01.980Z,8.41
2023-04-10T07:08:29.851Z,7.55
2023-04-10T07:10:58.719Z,8.86
2023-04-10T07:13:28.198Z,8.89
2023-04-10T07:15:56.126Z,9.17
2023-04-10T07:18:24.028Z,9.49
2023-04-10T07:20:52.607Z,9.55
2023-04-10T07:23:20.630Z,9.77
2023-04-10T07:25:48.434Z,10.16
2023-04-10T07:28:16.387Z,10.41
2023-04-10T07:30:45.508Z,10.32
2023-04-10T07:33:13.508Z,10.77
2023-04-10T07:35:41.666Z,10.94
2023-04-10T07:38:09.757Z,11.34
2023-04-10T07:40:37.560Z,11.08
2023-04-10T07:43:05.493Z,11.44
2023-04-10T07:45:33.745Z,11.81
2023-04-10T07:48:03.531Z,11.94
2023-04-10T07:50:31.897Z,11.89
2023-04-10T07:53:03.493Z,12.06
2023-04-10T07:55:31.353Z,12.27
2023-04-10T07:57:59.191Z,12.54
2023-04-10T08:00:27.106Z,12.73
2023-04-10T08:02:55.065Z,13.04
2023-04-10T08:05:24.526Z,13.16
2023-04-10T08:07:52.441Z,13.25
2023-04-10T08:10:20.311Z,13.28
2023-04-10T08:12:48.188Z,13.24
2023-04-10T08:15:16.238Z,13.45
2023-04-10T08:17:44.054Z,13.42
2023-04-10T08:20:13.017Z,13.50
2023-04-10T08:22:42.143Z,13.46
2023-04-10T08:25:10.790Z,13.78
2023-04-10T08:27:38.968Z,13.68
2023-04-10T08:30:07.883Z,13.67
2023-04-10T08:32:36.578Z,13.74
2023-04-10T08:35:04.738Z,13.85
2023-04-10T08:37:32.466Z,13.89
2023-04-10T08:40:01.691Z,14.08
2023-04-10T08:42:29.534Z,14.22
2023-04-10T08:44:57.423Z,14.32
2023-04-10T08:47:29.151Z,14.39
2023-04-10T08:49:58.498Z,14.23
2023-04-10T08:52:27.737Z,14.35
2023-04-10T08:54:57.514Z,14.50
2023-04-10T08:57:27.986Z,14.58
2023-04-10T08:59:56.477Z,14.70
2023-04-10T09:02:25.771Z,14.65
2023-04-10T09:04:55.588Z,14.50
2023-04-10T09:07:24.242Z,14.60
2023-04-10T09:09:52.066Z,14.59
2023-04-10T09:12:19.907Z,14.74
2023-04-10T09:14:53.304Z,15.00
2023-04-10T09:17:22.637Z,15.15
2023-04-10T09:19:52.429Z,14.94
2023-04-10T09:22:29.735Z,14.85
2023-04-10T09:24:59.339Z,15.18
2023-04-10T09:27:35.217Z,15.31
2023-04-10T09:30:05.693Z,15.37
2023-04-10T09:32:41.965Z,15.69
2023-04-10T09:35:11.756Z,15.87
2023-04-10T09:37:41.132Z,15.76
2023-04-10T09:40:22.338Z,15.94
2023-04-10T09:42:50.376Z,15.94
2023-04-10T09:45:20.475Z,15.87
2023-04-10T09:48:02.791Z,15.96
2023-04-10T09:50:38.022Z,16.09
2023-04-10T09:53:07.582Z,16.14
2023-04-10T09:55:36.326Z,15.81
2023-04-10T09:58:05.323Z,15.50
2023-04-10T10:00:39.844Z,15.57
2023-04-10T10:03:10.145Z,15.64
2023-04-10T10:05:41.074Z,15.78
2023-04-10T10:08:11.072Z,15.83
2023-04-10T10:10:46.043Z,15.93
2023-04-10T10:13:19.018Z,15.87
2023-04-10T10:15:56.112Z,15.92
2023-04-10T10:18:32.213Z,16.04
2023-04-10T10:21:01.178Z,15.94
2023-04-10T10:23:29.688Z,15.94
2023-04-10T10:26:00.231Z,15.87
2023-04-10T10:28:32.538Z,15.73
2023-04-10T10:31:03.637Z,14.93
2023-04-10T10:33:31.821Z,15.89
2023-04-10T10:36:01.365Z,15.87
2023-04-10T10:38:29.494Z,16.01
2023-04-10T10:41:07.828Z,15.67
2023-04-10T10:43:43.411Z,16.33
2023-04-10T10:46:18.492Z,16.25
2023-04-10T10:48:57.788Z,16.23
2023-04-10T10:51:25.903Z,16.27
2023-04-10T10:53:53.840Z,16.42
2023-04-10T10:56:35.499Z,16.47
2023-04-10T10:59:03.361Z,16.53
2023-04-10T11:01:32.787Z,16.46
2023-04-10T11:04:01.371Z,16.46
2023-04-10T11:06:53.516Z,16.47
2023-04-10T11:09:45.814Z,16.56
2023-04-10T11:12:14.028Z,16.68
2023-04-10T11:14:43.616Z,16.68
2023-04-10T11:17:12.962Z,16.82
2023-04-10T11:20:01.547Z,15.98
2023-04-10T11:22:29.528Z,16.90
2023-04-10T11:24:59.956Z,16.71
2023-04-10T11:27:42.381Z,16.91
2023-04-10T11:30:43.573Z,16.80
2023-04-10T11:33:18.939Z,16.62
2023-04-10T11:35:47.450Z,16.79
2023-04-10T11:38:18.151Z,16.97
2023-04-10T11:40:59.569Z,16.98
2023-04-10T11:43:27.562Z,17.01
2023-04-10T11:46:03.487Z,16.92
2023-04-10T11:48:33.310Z,17.03
2023-04-10T11:51:07.453Z,16.94
2023-04-10T11:53:35.372Z,17.05
2023-04-10T11:56:03.113Z,16.95
2023-04-10T11:58:32.034Z,17.02
2023-04-10T12:01:01.180Z,17.09
2023-04-10T12:03:35.623Z,17.27
2023-04-10T12:06:04.098Z,17.35
2023-04-10T12:08:32.808Z,17.42
2023-04-10T12:11:01.332Z,17.31
2023-04-10T12:13:30.589Z,17.28
2023-04-10T12:16:03.466Z,17.28
2023-04-10T12:18:31.989Z,17.31
2023-04-10T12:21:01.958Z,17.24
2023-04-10T12:23:31.115Z,17.33
2023-04-10T12:26:11.294Z,17.46
2023-04-10T12:28:40.509Z,17.35
2023-04-10T12:31:09.414Z,17.13
2023-04-10T12:33:37.570Z,17.47
2023-04-10T12:36:07.357Z,17.19
2023-04-10T12:38:42.784Z,17.61
2023-04-10T12:41:11.686Z,17.74
2023-04-10T12:43:41.187Z,17.64
2023-04-10T12:46:11.243Z,17.60
2023-04-10T12:48:39.318Z,17.70
2023-04-10T12:51:08.829Z,17.53
2023-04-10T12:53:45.252Z,17.39
2023-04-10T12:56:14.686Z,17.38
2023-04-10T12:58:42.708Z,17.57
2023-04-10T13:01:11.044Z,17.85
2023-04-10T13:03:39.144Z,17.81
2023-04-10T13:06:09.429Z,17.83
2023-04-10T13:08:37.095Z,17.66
2023-04-10T13:11:05.626Z,17.67
2023-04-10T13:13:33.650Z,17.63
2023-04-10T13:16:01.647Z,17.77
2023-04-10T13:18:29.587Z,17.79
2023-04-10T13:20:57.443Z,17.68
2023-04-10T13:23:26.639Z,17.12
2023-04-10T13:25:54.625Z,17.53
2023-04-10T13:28:22.582Z,17.62
2023-04-10T13:30:50.515Z,17.57
2023-04-10T13:33:18.402Z,17.83
2023-04-10T13:35:46.353Z,18.06
2023-04-10T13:38:14.332Z,18.21
2023-04-10T13:40:43.698Z,18.16
2023-04-10T13:43:11.536Z,17.72
2023-04-10T13:45:39.295Z,18.08
2023-04-10T13:48:08.139Z,18.28
2023-04-10T13:50:36.126Z,18.17
2023-04-10T13:53:03.997Z,18.54
2023-04-10T13:55:31.805Z,18.53
2023-04-10T13:58:01.130Z,18.35
2023-04-10T14:00:28.960Z,18.16
2023-04-10T14:02:57.135Z,18.20
2023-04-10T14:05:25.153Z,18.20
2023-04-10T14:07:56.801Z,18.21
2023-04-10T14:10:24.669Z,18.18
2023-04-10T14:12:52.482Z,17.81
2023-04-10T14:15:21.761Z,17.98
2023-04-10T14:17:49.699Z,18.08
2023-04-10T14:20:17.635Z,18.23
2023-04-10T14:22:47.355Z,18.10
2023-04-10T14:25:15.935Z,18.33
2023-04-10T14:27:44.247Z,18.24
2023-04-10T14:30:13.743Z,17.35
2023-04-10T14:32:43.941Z,18.48
2023-04-10T14:35:11.753Z,18.43
2023-04-10T14:37:39.981Z,18.31
2023-04-10T14:40:08.925Z,18.44
2023-04-10T14:42:36.796Z,18.04
2023-04-10T14:45:06.188Z,18.37
2023-04-10T14:47:34.129Z,18.28
2023-04-10T14:50:03.708Z,18.42
2023-04-10T14:52:31.571Z,18.21
2023-04-10T14:54:59.381Z,18.16
2023-04-10T14:57:28.072Z,18.29
2023-04-10T14:59:56.067Z,18.34
2023-04-10T15:02:24.416Z,18.40
2023-04-10T15:04:52.405Z,18.16
2023-04-10T15:07:21.704Z,18.22
2023-04-10T15:09:49.483Z,18.27
2023-04-10T15:12:17.581Z,18.06
2023-04-10T15:14:45.468Z,17.76
2023-04-10T15:17:13.522Z,17.87
2023-04-10T15:19:41.420Z,17.81
2023-04-10T15:22:09.363Z,17.84
2023-04-10T15:24:49.879Z,17.81
2023-04-10T15:27:20.226Z,17.85
2023-04-10T15:29:50.250Z,17.84
2023-04-10T15:32:18.111Z,17.69
2023-04-10T15:34:45.939Z,17.57
2023-04-10T15:37:13.776Z,17.56
2023-04-10T15:39:43.112Z,17.45
2023-04-10T15:42:11.007Z,17.48
2023-04-10T15:44:38.881Z,17.33
2023-04-10T15:47:06.795Z,17.13
2023-04-10T15:49:38.514Z,17.27
2023-04-10T15:52:06.910Z,17.31
2023-04-10T15:54:35.389Z,17.27
2023-04-10T15:57:04.881Z,17.11
2023-04-10T15:59:33.813Z,17.25
2023-04-10T16:02:01.895Z,17.17
2023-04-10T16:04:31.453Z,17.13
2023-04-10T16:06:59.599Z,17.05
2023-04-10T16:09:27.650Z,17.06
2023-04-10T16:11:56.154Z,16.82
2023-04-10T16:14:25.629Z,16.69
2023-04-10T16:16:55.930Z,17.09
2023-04-10T16:19:23.926Z,17.02
2023-04-10T16:21:51.801Z,17.02
2023-04-10T16:24:19.574Z,17.12
2023-04-10T16:26:47.452Z,17.05
2023-04-10T16:29:16.038Z,17.11
2023-04-10T16:31:45.500Z,17.15
2023-04-10T16:34:13.478Z,17.19
2023-04-10T16:36:41.313Z,17.07
2023-04-10T16:39:09.136Z,16.90
2023-04-10T16:41:36.978Z,16.76
2023-04-10T16:44:07.918Z,16.83
2023-04-10T16:46:36.247Z,16.82
2023-04-10T16:49:05.718Z,16.84
2023-04-10T16:51:33.737Z,16.73
2023-04-10T16:54:01.616Z,16.75
2023-04-10T16:56:29.422Z,16.63
2023-04-10T16:58:57.824Z,16.78
2023-04-10T17:01:26.082Z,16.75
2023-04-10T17:03:54.722Z,16.49
2023-04-10T17:06:24.057Z,16.63
2023-04-10T17:08:51.972Z,16.26
2023-04-10T17:11:19.812Z,16.24
2023-04-10T17:13:47.812Z,16.30
2023-04-10T17:16:16.434Z,16.44
2023-04-10T17:18:44.547Z,16.04
2023-04-10T17:21:13.246Z,16.28
2023-04-10T17:23:42.691Z,16.31
2023-04-10T17:26:14.702Z,16.30
2023-04-10T17:28:44.869Z,16.25
2023-04-10T17:31:13.146Z,16.23
2023-04-10T17:33:42.154Z,16.23
2023-04-10T17:36:12.248Z,15.97
2023-04-10T17:38:40.468Z,16.07
2023-04-10T17:41:10.534Z,16.09
2023-04-10T17:43:38.428Z,16.18
2023-04-10T17:46:06.915Z,16.19
2023-04-10T17:48:35.204Z,16.02
2023-04-10T17:51:06.273Z,16.10
2023-04-10T17:53:34.245Z,15.99
2023-04-10T17:56:02.179Z,15.97
2023-04-10T17:58:31.691Z,16.01
2023-04-10T18:00:59.778Z,15.96
2023-04-10T18:03:27.795Z,16.07
2023-04-10T18:05:56.750Z,15.93
2023-04-10T18:08:24.740Z,15.81
2023-04-10T18:10:52.800Z,15.97
2023-04-10T18:13:20.675Z,15.57
2023-04-10T18:15:50.011Z,15.80
2023-04-10T18:18:17.871Z,15.71
2023-04-10T18:20:45.938Z,15.72
2023-04-10T18:23:13.866Z,15.68
2023-04-10T18:25:41.941Z,15.59
2023-04-10T18:28:14.976Z,15.59
2023-04-10T18:30:43.938Z,15.61
2023-04-10T18:33:14.191Z,15.61
2023-04-10T18:35:42.234Z,15.55
2023-04-10T18:38:10.254Z,15.68
2023-04-10T18:40:38.344Z,15.60
2023-04-10T18:43:06.376Z,15.53
2023-04-10T18:45:34.969Z,15.41
2023-04-10T18:48:03.016Z,15.43
2023-04-10T18:50:35.071Z,15.46
2023-04-10T18:53:03.267Z,15.39
2023-04-10T18:55:31.357Z,15.24
2023-04-10T18:57:59.250Z,15.30
2023-04-10T19:00:27.216Z,15.19
2023-04-10T19:02:56.442Z,15.18
2023-04-10T19:05:24.566Z,15.12
2023-04-10T19:08:03.553Z,14.66
2023-04-10T19:10:32.568Z,15.15
2023-04-10T19:13:00.346Z,15.20
2023-04-10T19:15:28.317Z,14.97
2023-04-10T19:17:56.590Z,15.25
2023-04-10T19:20:50.871Z,15.16
2023-04-10T19:23:14.132Z,15.30
2023-04-10T19:25:43.662Z,15.37
2023-04-10T19:28:11.663Z,15.05
2023-04-10T19:30:39.598Z,15.27
2023-04-10T19:33:07.558Z,15.31
2023-04-10T19:35:35.509Z,15.32
2023-04-10T19:38:03.457Z,15.35
2023-04-10T19:40:32.727Z,15.35
2023-04-10T19:43:01.974Z,15.29
2023-04-10T19:45:32.174Z,15.17
2023-04-10T19:48:00.404Z,15.28
2023-04-10T19:50:29.459Z,15.22
2023-04-10T19:52:57.309Z,15.35
2023-04-10T19:55:25.131Z,15.28
2023-04-10T19:57:54.666Z,15.04
2023-04-10T20:00:22.535Z,15.36
2023-04-10T20:02:50.510Z,15.32
2023-04-10T20:05:18.573Z,15.32
2023-04-10T20:07:46.480Z,15.28
2023-04-10T20:10:14.285Z,15.31
2023-04-10T20:12:42.360Z,15.18
2023-04-10T20:15:12.578Z,15.10
2023-04-10T20:17:40.636Z,15.20
2023-04-10T20:20:09.490Z,15.16
2023-04-10T20:22:37.306Z,15.27
2023-04-10T20:25:05.594Z,15.36
2023-04-10T20:27:33.416Z,15.27
2023-04-10T20:30:01.258Z,14.86
2023-04-10T20:32:30.512Z,15.40
2023-04-10T20:34:58.319Z,15.43
2023-04-10T20:37:26.232Z,15.47
2023-04-10T20:39:54.094Z,15.35
2023-04-10T20:42:23.148Z,15.17
2023-04-10T20:44:51.036Z,15.10
2023-04-10T20:47:18.900Z,15.16
2023-04-10T20:49:48.055Z,15.31
2023-04-10T20:52:15.859Z,15.15
2023-04-10T20:54:43.629Z,15.40
2023-04-10T20:57:11.483Z,14.82
2023-04-10T20:59:39.334Z,14.78
2023-04-10T21:02:07.615Z,14.52
2023-04-10T21:04:35.755Z,14.12
2023-04-10T21:07:04.889Z,13.52
2023-04-10T21:09:32.714Z,13.21
2023-04-10T21:12:00.520Z,13.18
2023-04-10T21:14:28.279Z,13.05
2023-04-10T21:16:56.192Z,12.25
2023-04-10T21:19:24.121Z,12.78
2023-04-10T21:21:51.981Z,12.51
2023-04-10T21:24:21.124Z,12.64
2023-04-10T21:26:48.948Z,12.58
2023-04-10T21:29:16.835Z,12.45
2023-04-10T21:31:44.789Z,12.47
2023-04-10T21:34:12.595Z,12.46
2023-04-10T21:36:40.469Z,12.32
2023-04-10T21:39:09.208Z,12.14
2023-04-10T21:41:38.882Z,12.25
2023-04-10T21:44:07.837Z,12.35
2023-04-10T21:46:35.684Z,12.24
2023-04-10T21:49:03.564Z,12.31
2023-04-10T21:51:31.426Z,12.25
2023-04-10T21:53:59.265Z,12.16
2023-04-10T21:56:27.117Z,12.16
2023-04-10T21:58:56.502Z,12.21
2023-04-10T22:01:24.435Z,11.91
2023-04-10T22:03:53.823Z,12.08
2023-04-10T22:06:21.981Z,12.12
2023-04-10T22:08:49.973Z,12.24
2023-04-10T22:11:17.878Z,12.22
2023-04-10T22:13:45.926Z,11.77
2023-04-10T22:16:15.491Z,12.16
2023-04-10T22:18:43.281Z,11.88
2023-04-10T22:21:11.135Z,10.91
2023-04-10T22:23:38.925Z,11.81
2023-04-10T22:26:07.336Z,11.74
2023-04-10T22:28:35.457Z,11.72
2023-04-10T22:31:03.335Z,11.66
2023-04-10T22:33:34.424Z,11.62
2023-04-10T22:36:02.275Z,11.78
2023-04-10T22:38:30.163Z,11.86
2023-04-10T22:40:58.166Z,11.69
2023-04-10T22:43:26.074Z,11.63
2023-04-10T22:45:53.926Z,11.55
2023-04-10T22:48:21.837Z,11.59
2023-04-10T22:50:51.068Z,11.69
2023-04-10T22:53:18.881Z,11.45
2023-04-10T22:55:46.800Z,11.41
2023-04-10T22:58:14.616Z,11.59
2023-04-10T23:00:42.522Z,11.62
2023-04-10T23:03:10.567Z,11.64
2023-04-10T23:05:38.520Z,11.69
2023-04-10T23:08:10.365Z,11.50
2023-04-10T23:10:38.226Z,11.67
2023-04-10T23:13:06.080Z,11.72
2023-04-10T23:15:34.268Z,11.68
2023-04-10T23:18:02.059Z,11.74
2023-04-10T23:20:29.905Z,11.36
2023-04-10T23:22:57.740Z,11.75
2023-04-10T23:25:26.965Z,11.44
2023-04-10T23:27:55.520Z,11.44
2023-04-10T23:30:23.498Z,11.30
2023-04-10T23:32:51.465Z,11.43
2023-04-10T23:35:19.394Z,11.14
2023-04-10T23:37:47.426Z,11.02
2023-04-10T23:40:15.362Z,11.09
2023-04-10T23:42:44.598Z,10.85
2023-04-10T23:45:12.783Z,10.80
2023-04-10T23:47:40.636Z,10.96
2023-04-10T23:50:09.683Z,10.73
2023-04-10T23:52:37.619Z,10.78
2023-04-10T23:55:06.367Z,9.94
2023-04-10T23:57:34.238Z,10.80
